Time;durP1;ratioP1;P1;durP2;ratioP2;P2;SDS_P1;SDS_P2;PMS_P1;PMS_P2;Temp;Humidity;BMP_temperature;BMP_pressure;BME280_temperature;BME280_humidity;BME280_pressure;Samples;Min_cycle;Max_cycle;Signal;HPM_P1;HPM_P2
2022/10/27 00:00:20;;;;;;;1999.90;999.90;;;12.90;99.90;;;;;;5088512;28;20043;-65
2022/10/27 00:02:45;;;;;;;1999.90;999.90;;;12.90;99.90;;;;;;5088869;28;20040;-65
2022/10/27 00:05:11;;;;;;;1999.90;999.90;;;12.80;99.90;;;;;;5089170;28;20027;-64
2022/10/27 00:07:37;;;;;;;1999.90;999.90;;;12.90;99.90;;;;;;5075277;28;20122;-64
2022/10/27 00:10:04;;;;;;;1999.90;999.90;;;12.80;99.90;;;;;;5084639;28;20081;-65
2022/10/27 00:12:31;;;;;;;1999.90;999.90;;;12.80;99.90;;;;;;5091543;28;20040;-65
2022/10/27 00:14:56;;;;;;;1999.90;999.90;;;12.80;99.90;;;;;;5109998;28;20032;-64
2022/10/27 00:17:22;;;;;;;1999.90;999.90;;;12.80;99.90;;;;;;5090716;28;20511;-64
2022/10/27 00:19:47;;;;;;;1999.90;999.90;;;12.70;99.90;;;;;;5114486;28;20043;-65
2022/10/27 00:22:13;;;;;;;1999.90;999.90;;;12.70;99.90;;;;;;5108713;28;20040;-64
2022/10/27 00:24:38;;;;;;;1999.90;999.90;;;12.70;99.90;;;;;;5108906;28;20116;-64
2022/10/27 00:27:04;;;;;;;1999.90;999.90;;;12.70;99.90;;;;;;5105512;28;20035;-64
2022/10/27 00:29:29;;;;;;;1999.90;999.90;;;12.60;99.90;;;;;;5105774;28;20035;-65
2022/10/27 00:31:55;;;;;;;1999.90;999.90;;;12.70;99.90;;;;;;5097111;28;20104;-64
2022/10/27 00:34:20;;;;;;;1999.90;999.90;;;12.70;99.90;;;;;;5107483;28;20544;-64
2022/10/27 00:36:46;;;;;;;1999.90;999.90;;;12.70;99.90;;;;;;5105976;28;20176;-64
2022/10/27 00:39:11;;;;;;;1999.90;999.90;;;12.70;99.90;;;;;;5104659;28;20063;-64
2022/10/27 00:41:39;;;;;;;1999.90;999.90;;;12.70;99.90;;;;;;5106241;27;20043;-65
2022/10/27 00:44:26;;;;;;;1999.90;999.90;;;12.70;99.90;;;;;;5110971;28;20493;-64
2022/10/27 00:46:53;;;;;;;1999.90;999.90;;;12.60;99.90;;;;;;5110226;28;20058;-64
2022/10/27 00:49:25;;;;;;;1999.90;999.90;;;12.60;99.90;;;;;;5111440;27;20048;-64
2022/10/27 00:51:56;;;;;;;1999.90;999.90;;;12.50;99.90;;;;;;5088827;27;20043;-64
2022/10/27 00:54:22;;;;;;;1999.90;999.90;;;12.50;99.90;;;;;;5111739;27;20043;-64
2022/10/27 00:56:50;;;;;;;1999.90;999.90;;;12.50;99.90;;;;;;5107500;27;20039;-65
2022/10/27 00:59:17;;;;;;;1999.90;999.90;;;12.50;99.90;;;;;;5108231;28;20491;-64
2022/10/27 01:01:43;;;;;;;1999.90;999.90;;;12.50;99.90;;;;;;5110714;27;20085;-65
2022/10/27 01:04:10;;;;;;;1999.90;999.90;;;12.50;99.90;;;;;;5117161;27;20045;-64
2022/10/27 01:06:36;;;;;;;1999.90;999.90;;;12.50;99.90;;;;;;5109753;28;20043;-65
2022/10/27 01:09:04;;;;;;;1999.90;999.90;;;12.50;99.90;;;;;;5091863;28;20122;-65
2022/10/27 01:11:29;;;;;;;1999.90;999.90;;;12.40;99.90;;;;;;5090726;28;20100;-64
2022/10/27 01:13:55;;;;;;;1999.90;999.90;;;12.40;99.90;;;;;;5089270;28;20035;-65
2022/10/27 01:16:27;;;;;;;1999.90;999.90;;;12.40;99.90;;;;;;5085697;28;20067;-65
2022/10/27 01:19:07;;;;;;;1999.90;999.90;;;12.50;99.90;;;;;;5108206;27;20061;-64
2022/10/27 01:22:04;;;;;;;1999.90;999.90;;;12.60;99.90;;;;;;5097200;27;20082;-64
2022/10/27 01:25:16;;;;;;;1999.90;999.90;;;12.60;99.90;;;;;;5103733;28;20430;-65
2022/10/27 01:28:19;;;;;;;1999.90;999.90;;;12.70;99.90;;;;;;5083109;27;20104;-64
2022/10/27 01:31:00;;;;;;;1999.90;999.90;;;12.70;99.90;;;;;;5090390;28;20058;-64
2022/10/27 01:33:33;;;;;;;1999.90;999.90;;;12.70;99.90;;;;;;5098879;27;20052;-64
2022/10/27 01:36:06;;;;;;;1999.90;999.90;;;12.80;99.90;;;;;;5096320;28;20044;-64
2022/10/27 01:38:40;;;;;;;1999.90;999.90;;;12.80;99.90;;;;;;5091019;28;20119;-64
2022/10/27 01:41:16;;;;;;;1999.90;999.90;;;12.90;99.90;;;;;;5089081;28;20103;-65
2022/10/27 01:43:42;;;;;;;1999.90;999.90;;;12.90;99.90;;;;;;5089715;28;20043;-64
2022/10/27 01:46:10;;;;;;;1999.90;999.90;;;13.00;99.90;;;;;;5102584;28;20130;-64
2022/10/27 01:48:37;;;;;;;1999.90;999.90;;;13.00;99.90;;;;;;5108802;27;20500;-65
2022/10/27 01:51:05;;;;;;;1999.90;999.90;;;13.10;99.90;;;;;;5091389;28;20047;-65
2022/10/27 01:53:35;;;;;;;1999.90;999.90;;;13.10;99.90;;;;;;5106116;28;20046;-65
2022/10/27 01:56:03;;;;;;;1999.90;999.90;;;13.10;99.90;;;;;;5099469;28;20054;-64
2022/10/27 01:59:03;;;;;;;1999.90;999.90;;;13.10;99.90;;;;;;5108734;28;20051;-64
2022/10/27 02:01:56;;;;;;;1999.90;999.90;;;13.10;99.90;;;;;;5095307;28;20055;-65
2022/10/27 02:04:29;;;;;;;1999.90;999.90;;;13.00;99.90;;;;;;5101439;27;20097;-64
2022/10/27 02:06:54;;;;;;;;;;;13.00;99.90;;;;;;5102054;27;20079;-64
2022/10/27 02:09:29;;;;;;;1999.90;999.90;;;13.00;99.90;;;;;;5079130;28;20321;-64
2022/10/27 02:11:59;;;;;;;1999.90;999.90;;;13.00;99.90;;;;;;5106382;28;20085;-65
2022/10/27 02:14:25;;;;;;;1999.90;999.90;;;13.00;99.90;;;;;;5090850;28;20047;-64
2022/10/27 02:16:53;;;;;;;1999.90;999.90;;;13.00;99.90;;;;;;5106547;28;20039;-65
2022/10/27 02:19:23;;;;;;;1999.90;999.90;;;13.00;99.90;;;;;;5104681;28;20679;-64
2022/10/27 02:21:51;;;;;;;1999.90;999.90;;;13.00;99.90;;;;;;5087150;28;20067;-65
2022/10/27 02:24:17;;;;;;;1999.90;999.90;;;12.90;99.90;;;;;;5093390;28;20043;-64
2022/10/27 02:26:49;;;;;;;1999.90;999.90;;;12.90;99.90;;;;;;5105528;27;20047;-65
2022/10/27 02:29:21;;;;;;;1999.90;999.90;;;12.90;99.90;;;;;;5108959;27;20035;-65
2022/10/27 02:31:51;;;;;;;1999.90;999.90;;;12.80;99.90;;;;;;5096187;28;20036;-64
2022/10/27 02:34:17;;;;;;;1999.90;999.90;;;12.80;99.90;;;;;;5109799;27;20042;-65
2022/10/27 02:36:43;;;;;;;1999.90;999.90;;;12.80;99.90;;;;;;5108017;28;20325;-64
2022/10/27 02:39:09;;;;;;;1999.90;999.90;;;12.80;99.90;;;;;;5107584;28;20028;-65
2022/10/27 02:41:34;;;;;;;1999.90;999.90;;;12.90;99.90;;;;;;5109142;27;20070;-64
2022/10/27 02:44:00;;;;;;;1999.90;999.90;;;12.90;99.90;;;;;;5091524;28;20040;-64
2022/10/27 02:46:25;;;;;;;1999.90;999.90;;;12.90;99.90;;;;;;5100154;28;20051;-64
2022/10/27 02:48:51;;;;;;;1999.90;999.90;;;12.90;99.90;;;;;;5092742;28;20114;-65
2022/10/27 02:51:16;;;;;;;1999.90;999.90;;;12.90;99.90;;;;;;5108223;28;20045;-64
2022/10/27 02:53:42;;;;;;;1999.90;999.90;;;12.90;99.90;;;;;;5107455;27;20488;-64
2022/10/27 02:56:08;;;;;;;1999.90;999.90;;;12.90;99.90;;;;;;5097781;28;20088;-64
2022/10/27 02:58:34;;;;;;;1999.90;999.90;;;12.90;99.90;;;;;;5108012;28;20509;-64
2022/10/27 03:01:00;;;;;;;1999.90;999.90;;;12.80;99.90;;;;;;5094293;28;20096;-65
2022/10/27 03:03:26;;;;;;;1999.90;999.90;;;12.80;99.90;;;;;;5107907;27;20411;-64
2022/10/27 03:05:52;;;;;;;1999.90;999.90;;;12.80;99.90;;;;;;5077408;28;20104;-64
2022/10/27 03:08:17;;;;;;;1999.90;999.90;;;12.70;99.90;;;;;;5098796;28;20039;-65
2022/10/27 03:10:43;;;;;;;1999.90;999.90;;;12.70;99.90;;;;;;5072851;28;20047;-64
2022/10/27 03:13:09;;;;;;;1999.90;999.90;;;12.70;99.90;;;;;;5094782;28;20063;-65
2022/10/27 03:15:35;;;;;;;1999.90;999.90;;;12.70;99.90;;;;;;5104370;27;20036;-65
2022/10/27 03:18:01;;;;;;;1999.90;999.90;;;12.70;99.90;;;;;;5107787;28;20031;-65
2022/10/27 03:20:26;;;;;;;1999.90;999.90;;;12.60;99.90;;;;;;5106758;28;20071;-64
2022/10/27 03:22:52;;;;;;;1999.90;999.90;;;12.70;99.90;;;;;;5109346;28;20118;-65
2022/10/27 03:25:17;;;;;;;1999.90;999.90;;;12.70;99.90;;;;;;5087601;28;20133;-64
2022/10/27 03:27:44;;;;;;;1999.90;999.90;;;12.70;99.90;;;;;;5090311;28;20039;-64
2022/10/27 03:30:12;;;;;;;1999.90;999.90;;;12.80;99.90;;;;;;5089857;28;20047;-65
2022/10/27 03:32:38;;;;;;;1999.90;999.90;;;12.80;99.90;;;;;;5105936;28;20054;-64
2022/10/27 03:35:04;;;;;;;1999.90;999.90;;;12.80;99.90;;;;;;5088222;28;20039;-65
2022/10/27 03:37:29;;;;;;;1999.90;999.90;;;12.70;99.90;;;;;;5109322;28;20168;-64
2022/10/27 03:39:55;;;;;;;1999.90;999.90;;;12.70;99.90;;;;;;5070779;28;20036;-64
2022/10/27 03:42:20;;;;;;;1999.90;999.90;;;12.70;99.90;;;;;;5088547;28;20036;-64
2022/10/27 03:44:46;;;;;;;1999.90;999.90;;;12.70;99.90;;;;;;5118968;28;20580;-65
2022/10/27 03:47:12;;;;;;;1999.90;999.90;;;12.70;99.90;;;;;;5105607;28;20443;-64
2022/10/27 03:49:37;;;;;;;1999.90;999.90;;;12.80;99.90;;;;;;5104771;28;20508;-64
2022/10/27 03:52:03;;;;;;;1999.90;999.90;;;12.80;99.90;;;;;;5089177;28;20056;-64
2022/10/27 03:54:29;;;;;;;1999.90;999.90;;;12.80;99.90;;;;;;5089132;28;20050;-64
2022/10/27 03:56:55;;;;;;;1999.90;999.90;;;12.90;99.90;;;;;;5106345;28;20437;-65
2022/10/27 03:59:21;;;;;;;1999.90;999.90;;;12.90;99.90;;;;;;5106835;28;20044;-64
2022/10/27 04:01:47;;;;;;;1999.90;999.90;;;12.90;99.90;;;;;;5089463;28;20050;-64
2022/10/27 04:04:12;;;;;;;1999.90;999.90;;;12.90;99.90;;;;;;5111461;28;20420;-64
2022/10/27 04:06:38;;;;;;;1999.90;999.90;;;12.80;99.90;;;;;;5107380;28;20576;-64
2022/10/27 04:09:04;;;;;;;1999.90;999.90;;;12.80;99.90;;;;;;5085337;28;20500;-65
2022/10/27 04:11:29;;;;;;;1999.90;999.90;;;12.80;99.90;;;;;;5072902;28;20061;-65
2022/10/27 04:13:55;;;;;;;1999.90;999.90;;;12.80;99.90;;;;;;5104523;28;21632;-65
2022/10/27 04:16:21;;;;;;;1999.90;999.90;;;12.80;99.90;;;;;;5107907;28;20040;-64
2022/10/27 04:18:47;;;;;;;1999.90;999.90;;;12.80;99.90;;;;;;5076636;28;20045;-64
2022/10/27 04:21:14;;;;;;;1999.90;999.90;;;12.80;99.90;;;;;;5111093;28;20788;-65
2022/10/27 04:23:39;;;;;;;1999.90;999.90;;;12.80;99.90;;;;;;5075079;28;20046;-65
2022/10/27 04:26:05;;;;;;;1999.90;999.90;;;12.80;99.90;;;;;;5098763;28;20027;-64
2022/10/27 04:28:31;;;;;;;1999.90;999.90;;;12.80;99.90;;;;;;5106702;28;20046;-65
2022/10/27 04:30:57;;;;;;;1999.90;999.90;;;12.80;99.90;;;;;;5115196;27;20500;-64
2022/10/27 04:33:22;;;;;;;1999.90;999.90;;;12.80;99.90;;;;;;5107920;27;20044;-65
2022/10/27 04:35:48;;;;;;;1999.90;999.90;;;12.70;99.90;;;;;;5114535;27;20042;-65
2022/10/27 04:38:14;;;;;;;1999.90;999.90;;;12.70;99.90;;;;;;5108428;27;20534;-65
2022/10/27 04:40:39;;;;;;;1999.90;999.90;;;12.70;99.90;;;;;;5083093;28;20405;-64
2022/10/27 04:43:06;;;;;;;1999.90;999.90;;;12.70;99.90;;;;;;5116018;27;20084;-64
2022/10/27 04:45:32;;;;;;;1999.90;999.90;;;12.70;99.90;;;;;;5111738;27;20054;-64
2022/10/27 04:47:58;;;;;;;1999.90;999.90;;;12.70;99.90;;;;;;5092979;28;20071;-65
2022/10/27 04:50:24;;;;;;;1999.90;999.90;;;12.70;99.90;;;;;;5110190;28;20067;-64
2022/10/27 04:52:57;;;;;;;1999.90;999.90;;;12.60;99.90;;;;;;5099828;27;20587;-65
2022/10/27 04:55:24;;;;;;;1999.90;999.90;;;12.60;99.90;;;;;;5094900;28;20400;-64
2022/10/27 04:57:50;;;;;;;1999.90;999.90;;;12.50;99.90;;;;;;5108211;28;20079;-64
2022/10/27 05:00:17;;;;;;;1999.90;999.90;;;12.50;99.90;;;;;;5106355;27;20120;-65
2022/10/27 05:02:43;;;;;;;1999.90;999.90;;;12.50;99.90;;;;;;5110932;27;20048;-64
2022/10/27 05:05:09;;;;;;;1999.90;999.90;;;12.40;99.90;;;;;;5091213;28;20047;-65
2022/10/27 05:07:34;;;;;;;1999.90;999.90;;;12.40;99.90;;;;;;5109673;28;20032;-64
2022/10/27 05:10:00;;;;;;;1999.90;999.90;;;12.40;99.90;;;;;;5110130;27;20125;-64
2022/10/27 05:12:25;;;;;;;1999.90;999.90;;;12.40;99.90;;;;;;5109445;27;20065;-64
2022/10/27 05:14:51;;;;;;;1999.90;999.90;;;12.40;99.90;;;;;;5120027;27;20027;-64
2022/10/27 05:17:16;;;;;;;1999.90;999.90;;;12.40;99.90;;;;;;5106580;27;20477;-65
2022/10/27 05:19:42;;;;;;;1999.90;999.90;;;12.50;99.90;;;;;;5107297;27;20043;-65
2022/10/27 05:22:08;;;;;;;1999.90;999.90;;;12.50;99.90;;;;;;5114715;27;20073;-64
2022/10/27 05:24:33;;;;;;;1999.90;999.90;;;12.50;99.90;;;;;;5108536;27;20043;-65
2022/10/27 05:26:59;;;;;;;1999.90;999.90;;;12.50;99.90;;;;;;5107286;27;20054;-64
2022/10/27 05:29:24;;;;;;;1999.90;999.90;;;12.50;99.90;;;;;;5125504;27;20038;-64
2022/10/27 05:31:51;;;;;;;1999.90;999.90;;;12.50;99.90;;;;;;5095049;28;20450;-64
2022/10/27 05:34:17;;;;;;;1999.90;999.90;;;12.60;99.90;;;;;;5099279;28;20044;-64
2022/10/27 05:36:43;;;;;;;1999.90;999.90;;;12.60;99.90;;;;;;5101222;27;20045;-64
2022/10/27 05:39:08;;;;;;;1999.90;999.90;;;12.70;99.90;;;;;;5095162;28;20119;-64
2022/10/27 05:41:34;;;;;;;1999.90;999.90;;;12.70;99.90;;;;;;5094045;27;20515;-64
2022/10/27 05:43:59;;;;;;;1999.90;999.90;;;12.70;99.90;;;;;;5090971;28;20028;-65
2022/10/27 05:46:25;;;;;;;1999.90;999.90;;;12.70;99.90;;;;;;5080812;28;20053;-65
2022/10/27 05:48:50;;;;;;;1999.90;999.90;;;12.80;99.90;;;;;;5082819;28;20131;-65
2022/10/27 05:51:16;;;;;;;1999.90;999.90;;;12.80;99.90;;;;;;5086772;28;20152;-64
2022/10/27 05:53:41;;;;;;;1999.90;999.90;;;12.80;99.90;;;;;;5096616;28;20043;-64
2022/10/27 05:56:07;;;;;;;1999.90;999.90;;;12.90;99.90;;;;;;5089223;28;20119;-64
2022/10/27 05:58:32;;;;;;;1999.90;999.90;;;12.90;99.90;;;;;;5085843;28;20044;-67
2022/10/27 06:00:59;;;;;;;1999.90;999.90;;;12.90;99.90;;;;;;5096226;28;20556;-64
2022/10/27 06:03:25;;;;;;;1999.90;999.90;;;12.90;99.90;;;;;;5088693;28;20641;-64
2022/10/27 06:05:51;;;;;;;1999.90;999.90;;;13.00;99.90;;;;;;5093227;28;20035;-65
2022/10/27 06:08:18;;;;;;;1999.90;999.90;;;13.00;99.90;;;;;;5095227;28;20481;-64
2022/10/27 06:10:44;;;;;;;1999.90;999.90;;;13.00;99.90;;;;;;5086126;28;20055;-65
2022/10/27 06:13:13;;;;;;;1999.90;999.90;;;13.00;99.90;;;;;;5095031;28;20047;-64
2022/10/27 06:15:39;;;;;;;1999.90;999.90;;;13.00;99.90;;;;;;5081363;28;20066;-64
2022/10/27 06:18:05;;;;;;;1999.90;999.90;;;13.00;99.90;;;;;;5086251;28;20620;-65
2022/10/27 06:20:31;;;;;;;1999.90;999.90;;;13.00;99.90;;;;;;5077388;28;20477;-64
2022/10/27 06:22:57;;;;;;;1999.90;999.90;;;13.00;99.90;;;;;;5087071;28;20132;-64
2022/10/27 06:25:23;;;;;;;1999.90;999.90;;;13.00;99.90;;;;;;5084865;28;20044;-64
2022/10/27 06:27:49;;;;;;;1999.90;999.90;;;12.90;99.90;;;;;;5088460;28;20051;-65
2022/10/27 06:30:14;;;;;;;1999.90;999.90;;;12.90;99.90;;;;;;5078971;28;20040;-64
2022/10/27 06:32:41;;;;;;;1999.90;999.90;;;12.90;99.90;;;;;;5088729;28;20040;-64
2022/10/27 06:35:08;;;;;;;1999.90;999.90;;;12.90;99.90;;;;;;5086203;28;20497;-64
2022/10/27 06:37:41;;;;;;;1999.90;999.90;;;12.90;99.90;;;;;;5085979;28;20077;-65
2022/10/27 06:40:08;;;;;;;1999.90;999.90;;;12.90;99.90;;;;;;5087024;28;20043;-64
2022/10/27 06:42:35;;;;;;;1999.90;999.90;;;12.90;99.90;;;;;;5088051;28;20410;-64
2022/10/27 06:45:01;;;;;;;1999.90;999.90;;;12.90;99.90;;;;;;5099761;28;20039;-64
2022/10/27 06:47:27;;;;;;;1999.90;999.90;;;13.00;99.90;;;;;;5102560;27;20051;-64
2022/10/27 06:49:53;;;;;;;1999.90;999.90;;;13.10;99.90;;;;;;5089727;28;20203;-64
2022/10/27 06:52:18;;;;;;;1999.90;999.90;;;13.10;99.90;;;;;;5073189;28;20040;-64
2022/10/27 06:54:44;;;;;;;1999.90;999.90;;;13.10;99.90;;;;;;5121787;27;20062;-65
2022/10/27 06:57:09;;;;;;;1999.90;999.90;;;13.10;99.90;;;;;;5084480;28;20039;-64
2022/10/27 06:59:35;;;;;;;1999.90;999.90;;;13.20;99.90;;;;;;5108235;27;20096;-65
2022/10/27 07:02:02;;;;;;;1999.90;999.90;;;13.20;99.90;;;;;;5090121;28;20034;-65
2022/10/27 07:04:28;;;;;;;1999.90;999.90;;;13.30;99.90;;;;;;5091786;28;20044;-64
2022/10/27 07:06:53;;;;;;;1999.90;999.90;;;13.30;99.90;;;;;;5107923;27;20494;-64
2022/10/27 07:09:19;;;;;;;1999.90;999.90;;;13.40;99.90;;;;;;5116576;27;20493;-65
2022/10/27 07:11:44;;;;;;;1999.90;999.90;;;13.40;99.90;;;;;;5100837;28;20075;-64
2022/10/27 07:14:10;;;;;;;1999.90;999.90;;;13.50;99.90;;;;;;5096491;27;20035;-65
2022/10/27 07:16:35;;;;;;;1999.90;999.90;;;13.50;99.90;;;;;;5088085;28;20129;-65
2022/10/27 07:19:01;;;;;;;1999.90;999.90;;;13.60;99.90;;;;;;5107394;28;20122;-64
2022/10/27 07:21:27;;;;;;;1999.90;999.90;;;13.60;99.90;;;;;;5119998;27;20519;-65
2022/10/27 07:23:53;;;;;;;1999.90;999.90;;;13.70;99.90;;;;;;5111630;28;20140;-64
2022/10/27 07:26:18;;;;;;;1999.90;999.90;;;13.80;99.90;;;;;;5105331;27;20050;-65
2022/10/27 07:28:44;;;;;;;1999.90;999.90;;;13.80;99.90;;;;;;5115905;28;20035;-65
2022/10/27 07:31:10;;;;;;;1999.90;999.90;;;13.90;99.90;;;;;;5108182;28;20532;-65
2022/10/27 07:33:35;;;;;;;1999.90;999.90;;;13.90;99.90;;;;;;5117754;28;20469;-65
2022/10/27 07:36:01;;;;;;;1999.90;999.90;;;14.00;99.90;;;;;;5116614;28;20533;-65
2022/10/27 07:38:26;;;;;;;1999.90;999.90;;;14.00;99.90;;;;;;5090741;28;20114;-64
2022/10/27 07:40:52;;;;;;;1999.90;999.90;;;14.10;99.90;;;;;;5119612;28;20074;-65
2022/10/27 07:43:17;;;;;;;1999.90;999.90;;;14.10;99.90;;;;;;5099437;28;20092;-64
2022/10/27 07:45:43;;;;;;;1999.90;999.90;;;14.10;99.90;;;;;;5120722;28;20116;-64
2022/10/27 07:48:12;;;;;;;1999.90;999.90;;;14.20;99.90;;;;;;5109239;28;20159;-64
2022/10/27 07:50:38;;;;;;;1999.90;999.90;;;14.20;99.90;;;;;;5118124;27;20104;-64
2022/10/27 07:53:03;;;;;;;1999.90;999.90;;;14.20;99.90;;;;;;5088905;27;20404;-65
2022/10/27 07:55:31;;;;;;;1999.90;999.90;;;14.30;99.90;;;;;;5101804;28;20485;-65
2022/10/27 07:58:15;;;;;;;1999.90;999.90;;;14.30;99.90;;;;;;5104433;28;20101;-64
2022/10/27 08:00:46;;;;;;;1999.90;999.90;;;14.40;99.90;;;;;;5083156;28;20055;-64
2022/10/27 08:03:20;;;;;;;1999.90;999.90;;;14.50;99.90;;;;;;5108463;27;20156;-65
2022/10/27 08:05:46;;;;;;;1999.90;999.90;;;14.60;99.90;;;;;;5109605;27;20175;-65
2022/10/27 08:08:13;;;;;;;1999.90;999.90;;;14.70;99.90;;;;;;5115585;27;20042;-64
2022/10/27 08:10:40;;;;;;;1999.90;999.90;;;14.80;99.90;;;;;;5097784;28;20086;-64
2022/10/27 08:13:07;;;;;;;1999.90;999.90;;;14.80;99.90;;;;;;5109222;27;20076;-64
2022/10/27 08:15:39;;;;;;;1999.90;999.90;;;14.90;99.90;;;;;;5081521;28;20039;-64
2022/10/27 08:18:05;;;;;;;1999.90;999.90;;;15.00;99.90;;;;;;5119012;27;20492;-65
2022/10/27 08:20:38;;;;;;;1999.90;999.90;;;15.20;99.90;;;;;;5111996;27;20553;-64
2022/10/27 08:23:05;;;;;;;;;;;15.20;99.90;;;;;;5110784;27;20151;-64
2022/10/27 08:25:31;;;;;;;1999.90;999.90;;;15.20;99.90;;;;;;5118445;27;19920;-66
2022/10/27 08:27:57;;;;;;;1999.90;999.90;;;15.20;99.90;;;;;;5094968;27;20047;-65
2022/10/27 08:30:25;;;;;;;1999.90;999.90;;;15.20;99.90;;;;;;5108680;27;20039;-63
2022/10/27 08:32:59;;;;;;;1999.90;999.90;;;15.20;99.90;;;;;;5105313;27;20050;-65
2022/10/27 08:35:26;;;;;;;1999.90;999.90;;;15.30;99.90;;;;;;5107211;27;20078;-64
2022/10/27 08:38:06;;;;;;;1999.90;999.90;;;15.30;99.90;;;;;;5079121;28;20127;-65
2022/10/27 08:40:55;;;;;;;1999.90;999.90;;;15.50;99.90;;;;;;5097092;27;20043;-65
2022/10/27 08:43:58;;;;;;;1999.90;999.90;;;16.00;99.90;;;;;;5104253;27;20043;-64
2022/10/27 08:46:37;;;;;;;1999.90;999.90;;;16.60;99.90;;;;;;5050877;28;20046;-65
2022/10/27 08:49:08;;;;;;;1999.90;999.90;;;17.10;99.90;;;;;;5111902;27;20049;-64
2022/10/27 08:51:35;;;;;;;1999.90;999.90;;;17.40;99.90;;;;;;5113233;27;20073;-64
2022/10/27 08:54:03;;;;;;;1999.90;999.90;;;17.70;99.90;;;;;;5107123;27;20047;-65
2022/10/27 08:56:38;;;;;;;1999.90;999.90;;;18.00;99.90;;;;;;5093904;28;20101;-65
2022/10/27 08:59:03;;;;;;;1999.90;999.90;;;18.40;99.90;;;;;;5078443;28;20040;-65
2022/10/27 09:01:40;;;;;;;1999.90;999.90;;;18.70;99.90;;;;;;5095288;28;20047;-65
2022/10/27 09:04:25;;;;;;;1999.90;999.90;;;19.00;99.90;;;;;;5077656;28;20096;-65
2022/10/27 09:07:03;;;;;;;1999.90;999.90;;;19.20;99.90;;;;;;5086955;28;20397;-65
2022/10/27 09:09:55;;;;;;;1999.90;999.90;;;19.20;99.90;;;;;;5076669;27;20108;-65
2022/10/27 09:12:49;;;;;;;1999.90;999.90;;;19.20;99.90;;;;;;5090339;28;20099;-65
2022/10/27 09:15:37;;;;;;;1999.90;999.90;;;19.20;99.90;;;;;;5106863;27;20093;-64
2022/10/27 09:18:32;;;;;;;1999.90;999.90;;;19.20;99.90;;;;;;5089536;28;20045;-65
2022/10/27 09:21:00;;;;;;;1999.90;999.90;;;18.90;99.90;;;;;;5111642;27;20051;-65
2022/10/27 09:23:36;;;;;;;1999.90;999.90;;;18.60;99.90;;;;;;5092419;27;20035;-66
2022/10/27 09:26:02;;;;;;;1999.90;999.90;;;18.40;99.90;;;;;;5094469;28;21214;-66
2022/10/27 09:28:53;;;;;;;1999.90;999.90;;;18.30;99.90;;;;;;5090053;27;20165;-65
2022/10/27 09:31:41;;;;;;;1999.90;999.90;;;18.30;99.90;;;;;;5105029;27;20497;-64
2022/10/27 09:34:34;;;;;;;1999.90;999.90;;;18.40;99.90;;;;;;5105092;28;20416;-64
2022/10/27 09:37:00;;;;;;;1999.90;999.90;;;18.40;99.90;;;;;;5097659;27;20066;-64
2022/10/27 09:39:26;;;;;;;1999.90;999.90;;;18.30;99.90;;;;;;5093988;28;20071;-64
2022/10/27 09:41:52;;;;;;;1999.90;999.90;;;18.30;99.90;;;;;;5115057;27;20415;-64
2022/10/27 09:44:22;;;;;;;1999.90;999.90;;;18.30;99.90;;;;;;5111469;27;20039;-64
2022/10/27 09:46:53;;;;;;;1999.90;999.90;;;18.20;99.90;;;;;;5109864;28;20135;-64
2022/10/27 09:49:22;;;;;;;1999.90;999.90;;;18.10;99.90;;;;;;5106666;28;20097;-64
2022/10/27 09:51:53;;;;;;;1999.90;999.90;;;18.10;99.90;;;;;;5110258;28;20054;-64
2022/10/27 09:54:27;;;;;;;1999.90;999.90;;;18.10;99.90;;;;;;5081347;27;20043;-64
2022/10/27 09:56:54;;;;;;;1999.90;999.90;;;18.00;99.90;;;;;;5109566;28;20107;-64
2022/10/27 09:59:22;;;;;;;1999.90;999.90;;;18.00;99.90;;;;;;5109318;27;20042;-64
2022/10/27 10:01:55;;;;;;;1999.90;999.90;;;17.90;99.90;;;;;;5111497;27;20059;-63
2022/10/27 10:04:41;;;;;;;1999.90;999.90;;;17.90;99.90;;;;;;5086768;28;20052;-63
2022/10/27 10:07:39;;;;;;;1999.90;999.90;;;17.90;99.90;;;;;;5092961;28;20404;-64
2022/10/27 10:10:21;;;;;;;1999.90;999.90;;;17.90;99.90;;;;;;5100100;28;20469;-64
2022/10/27 10:13:11;;;;;;;1999.90;999.90;;;17.90;99.90;;;;;;5098208;28;20405;-64
2022/10/27 10:15:43;;;;;;;1999.90;999.90;;;18.00;99.90;;;;;;5121442;27;20092;-64
2022/10/27 10:18:27;;;;;;;1999.90;999.90;;;18.10;99.90;;;;;;5095873;28;20497;-64
2022/10/27 10:21:02;;;;;;;1999.90;999.90;;;18.30;99.90;;;;;;5080747;28;20078;-64
2022/10/27 10:23:31;;;;;;;1999.90;999.90;;;18.40;99.90;;;;;;5101593;28;20104;-64
2022/10/27 10:25:59;;;;;;;1999.90;999.90;;;18.50;99.90;;;;;;5108954;28;20035;-64
2022/10/27 10:28:34;;;;;;;1999.90;999.90;;;18.50;99.90;;;;;;5083890;28;20088;-63
2022/10/27 10:31:03;;;;;;;1999.90;999.90;;;18.50;99.90;;;;;;5094969;28;20043;-64
2022/10/27 10:33:33;;;;;;;1999.90;999.90;;;18.50;99.90;;;;;;5108886;28;20475;-64
2022/10/27 10:36:02;;;;;;;1999.90;999.90;;;18.50;99.90;;;;;;5098977;28;20380;-64
2022/10/27 10:38:30;;;;;;;1999.90;999.90;;;18.50;99.90;;;;;;5098888;28;20043;-64
2022/10/27 10:41:20;;;;;;;1999.90;999.90;;;18.50;99.90;;;;;;5112544;27;20043;-64
2022/10/27 10:44:05;;;;;;;1999.90;999.90;;;18.60;99.90;;;;;;5114760;27;20040;-64
2022/10/27 10:46:55;;;;;;;1999.90;999.90;;;18.80;99.90;;;;;;5102142;27;21051;-64
2022/10/27 10:49:25;;;;;;;1999.90;999.90;;;18.90;99.90;;;;;;5098290;28;20134;-64
2022/10/27 10:52:05;;;;;;;1999.90;999.90;;;18.90;99.90;;;;;;5100843;28;20035;-64
2022/10/27 10:54:39;;;;;;;1999.90;999.90;;;18.90;99.90;;;;;;5093639;28;20052;-64
2022/10/27 10:57:24;;;;;;;1999.90;999.90;;;19.10;99.90;;;;;;5090713;28;20204;-64
2022/10/27 10:59:53;;;;;;;1999.90;999.90;;;19.30;99.90;;;;;;5102069;28;20927;-63
2022/10/27 11:02:29;;;;;;;1999.90;999.90;;;19.60;99.90;;;;;;5097834;28;20075;-64
2022/10/27 11:04:57;;;;;;;1999.90;999.90;;;19.70;99.90;;;;;;5098091;28;20050;-64
2022/10/27 11:07:25;;;;;;;1999.90;999.90;;;19.70;99.90;;;;;;5090477;28;20130;-64
2022/10/27 11:10:11;;;;;;;1999.90;999.90;;;19.60;99.90;;;;;;5103511;28;20635;-64
2022/10/27 11:12:48;;;;;;;1999.90;999.90;;;19.60;99.90;;;;;;5095220;28;20090;-64
2022/10/27 11:15:23;;;;;;;1999.90;999.90;;;19.70;99.90;;;;;;5099979;28;20040;-64
2022/10/27 11:17:51;;;;;;;1999.90;999.90;;;19.80;99.90;;;;;;5097117;28;20100;-64
2022/10/27 11:20:23;;;;;;;1999.90;999.90;;;19.80;99.90;;;;;;5098752;28;20048;-64
2022/10/27 11:22:51;;;;;;;1999.90;999.90;;;19.90;99.90;;;;;;5096631;28;20058;-64
2022/10/27 11:25:20;;;;;;;1999.90;999.90;;;20.00;99.90;;;;;;5097354;28;20051;-64
2022/10/27 11:28:03;;;;;;;1999.90;999.90;;;20.20;99.90;;;;;;5090730;28;20063;-64
2022/10/27 11:30:29;;;;;;;1999.90;999.90;;;20.30;99.90;;;;;;5093204;28;20036;-65
2022/10/27 11:33:10;;;;;;;1999.90;999.90;;;20.30;99.90;;;;;;5097559;28;20051;-64
2022/10/27 11:36:07;;;;;;;1999.90;999.90;;;20.40;99.90;;;;;;5095732;28;20110;-63
2022/10/27 11:38:53;;;;;;;1999.90;999.90;;;20.40;99.90;;;;;;5096529;28;20093;-64
2022/10/27 11:41:42;;;;;;;1999.90;999.90;;;20.50;99.90;;;;;;5105682;28;20502;-64
2022/10/27 11:44:33;;;;;;;1999.90;999.90;;;20.60;99.90;;;;;;5098626;28;20621;-64
2022/10/27 11:47:09;;;;;;;1999.90;999.90;;;20.60;99.90;;;;;;5100140;28;20044;-64
2022/10/27 11:50:17;;;;;;;1999.90;999.90;;;20.60;99.90;;;;;;5095169;28;20036;-64
2022/10/27 11:52:56;;;;;;;1999.90;999.90;;;20.50;99.90;;;;;;5072368;28;20507;-64
2022/10/27 11:55:25;;;;;;;1999.90;999.90;;;20.50;99.90;;;;;;5088413;28;20044;-65
2022/10/27 11:58:04;;;;;;;1999.90;999.90;;;20.60;99.90;;;;;;5066675;28;20048;-64
2022/10/27 12:00:42;;;;;;;1999.90;999.90;;;20.70;99.90;;;;;;5086753;28;20048;-64
2022/10/27 12:03:29;;;;;;;1999.90;999.90;;;20.70;99.90;;;;;;5087529;28;20036;-64
2022/10/27 12:06:27;;;;;;;1999.90;999.90;;;20.60;99.90;;;;;;5090693;28;20063;-64
2022/10/27 12:08:57;;;;;;;1999.90;999.90;;;20.50;99.90;;;;;;5068112;28;20040;-64
2022/10/27 12:12:18;;;;;;;1999.90;999.90;;;20.40;99.90;;;;;;5070553;28;20448;-66
2022/10/27 12:15:14;;;;;;;1999.90;999.90;;;20.40;99.90;;;;;;5052246;28;20044;-66
2022/10/27 12:18:12;;;;;;;1999.90;999.90;;;20.60;99.90;;;;;;5074470;28;20079;-66